createdAt,value
2022-11-28T00:00:29.158Z,991.13
2022-11-28T00:01:29.180Z,991.13
2022-11-28T00:02:29.284Z,991.13
2022-11-28T00:03:29.274Z,991.04
2022-11-28T00:04:29.141Z,991.05
2022-11-28T00:05:29.152Z,991.02
2022-11-28T00:06:29.196Z,991.04
2022-11-28T00:07:29.238Z,991.08
2022-11-28T00:08:29.214Z,991.07
2022-11-28T00:09:29.227Z,991.09
2022-11-28T00:10:29.232Z,991.02
2022-11-28T00:11:29.258Z,991.14
2022-11-28T00:12:29.231Z,991.04
2022-11-28T00:13:29.289Z,991.05
2022-11-28T00:14:29.247Z,990.99
2022-11-28T00:15:29.297Z,991.01
2022-11-28T00:16:29.415Z,991.01
2022-11-28T00:17:29.343Z,991.01
2022-11-28T00:18:29.357Z,991.03
2022-11-28T00:19:29.338Z,990.93
2022-11-28T00:20:29.352Z,991.04
2022-11-28T00:21:29.334Z,990.99
2022-11-28T00:22:29.356Z,991.03
2022-11-28T00:23:29.395Z,990.99
2022-11-28T00:24:29.389Z,990.99
2022-11-28T00:25:29.429Z,990.99
2022-11-28T00:26:29.432Z,991.10
2022-11-28T00:27:29.452Z,991.07
2022-11-28T00:28:29.468Z,991.04
2022-11-28T00:29:29.459Z,991.02
2022-11-28T00:30:29.479Z,991.06
2022-11-28T00:31:29.585Z,991.06
2022-11-28T00:32:29.496Z,991.04
2022-11-28T00:33:29.536Z,991.09
2022-11-28T00:34:29.518Z,991.09
2022-11-28T00:35:29.529Z,991.08
2022-11-28T00:36:29.597Z,991.05
2022-11-28T00:37:29.547Z,990.98
2022-11-28T00:38:29.567Z,991.05
2022-11-28T00:39:29.598Z,991.14
2022-11-28T00:40:29.576Z,991.09
2022-11-28T00:41:29.571Z,991.13
2022-11-28T00:42:29.628Z,991.05
2022-11-28T00:43:29.674Z,991.11
2022-11-28T00:44:29.638Z,991.15
2022-11-28T00:45:29.704Z,991.15
2022-11-28T00:46:29.662Z,991.15
2022-11-28T00:47:29.658Z,991.17
2022-11-28T00:48:29.695Z,991.11
2022-11-28T00:49:29.683Z,991.15
2022-11-28T00:50:29.719Z,991.14
2022-11-28T00:51:29.720Z,991.12
2022-11-28T00:52:29.749Z,991.11
2022-11-28T00:53:29.753Z,991.23
2022-11-28T00:54:29.767Z,991.08
2022-11-28T00:55:29.795Z,991.11
2022-11-28T00:56:29.787Z,991.16
2022-11-28T00:57:29.783Z,991.09
2022-11-28T00:58:29.817Z,991.08
2022-11-28T00:59:29.776Z,990.95
2022-11-28T01:00:29.814Z,991.03
2022-11-28T01:01:29.853Z,990.95
2022-11-28T01:02:29.902Z,990.86
2022-11-28T01:03:29.850Z,990.85
2022-11-28T01:04:29.887Z,990.90
2022-11-28T01:05:29.895Z,990.88
2022-11-28T01:06:29.884Z,990.92
2022-11-28T01:07:29.944Z,990.91
2022-11-28T01:08:29.897Z,990.89
2022-11-28T01:09:29.920Z,990.80
2022-11-28T01:10:29.928Z,990.86
2022-11-28T01:11:29.979Z,990.88
2022-11-28T01:12:29.973Z,990.89
2022-11-28T01:13:29.987Z,990.94
2022-11-28T01:14:30.011Z,990.88
2022-11-28T01:15:30.007Z,990.91
2022-11-28T01:16:30.093Z,990.90
2022-11-28T01:17:30.035Z,990.91
2022-11-28T01:18:30.036Z,990.90
2022-11-28T01:19:30.060Z,990.87
2022-11-28T01:20:30.067Z,990.85
2022-11-28T01:21:30.097Z,990.87
2022-11-28T01:22:30.087Z,990.84
2022-11-28T01:23:30.103Z,990.86
2022-11-28T01:24:30.112Z,990.90
2022-11-28T01:25:30.130Z,990.96
2022-11-28T01:26:30.116Z,990.94
2022-11-28T01:27:30.138Z,990.91
2022-11-28T01:28:30.137Z,990.96
2022-11-28T01:29:30.187Z,990.94
2022-11-28T01:30:30.144Z,990.91
2022-11-28T01:31:30.269Z,990.98
2022-11-28T01:32:30.211Z,990.90
2022-11-28T01:33:30.223Z,990.88
2022-11-28T01:34:30.231Z,990.81
2022-11-28T01:35:30.259Z,990.89
2022-11-28T01:36:30.252Z,990.91
2022-11-28T01:37:30.234Z,990.78
2022-11-28T01:38:30.262Z,990.70
2022-11-28T01:39:30.255Z,990.73
2022-11-28T01:40:30.303Z,990.68
2022-11-28T01:41:30.332Z,990.71
2022-11-28T01:42:30.332Z,990.60
2022-11-28T01:43:30.343Z,990.61
2022-11-28T01:44:30.377Z,990.62
2022-11-28T01:45:51.463Z,990.56
2022-11-28T01:46:51.566Z,990.59
2022-11-28T01:47:51.518Z,990.59
2022-11-28T01:48:51.465Z,990.43
2022-11-28T01:49:51.470Z,990.42
2022-11-28T01:50:51.497Z,990.45
2022-11-28T01:51:51.496Z,990.39
2022-11-28T01:52:51.507Z,990.44
2022-11-28T01:53:51.499Z,990.42
2022-11-28T01:54:51.496Z,990.49
2022-11-28T01:55:51.481Z,990.46
2022-11-28T01:56:51.491Z,990.47
2022-11-28T01:57:51.477Z,990.41
2022-11-28T01:58:51.482Z,990.43
2022-11-28T01:59:51.487Z,990.42
2022-11-28T02:00:51.592Z,990.45
2022-11-28T02:01:51.541Z,990.48
2022-11-28T02:02:51.503Z,990.39
2022-11-28T02:03:51.507Z,990.40
2022-11-28T02:04:51.509Z,990.34
2022-11-28T02:05:51.516Z,990.23
2022-11-28T02:06:51.522Z,990.29
2022-11-28T02:07:51.524Z,990.22
2022-11-28T02:08:51.504Z,990.20
2022-11-28T02:09:51.515Z,990.07
2022-11-28T02:10:51.520Z,990.05
2022-11-28T02:11:51.497Z,989.98
2022-11-28T02:12:51.527Z,989.91
2022-11-28T02:13:51.485Z,989.86
2022-11-28T02:14:51.507Z,989.94
2022-11-28T02:15:51.515Z,990.11
2022-11-28T02:16:51.510Z,990.09
2022-11-28T02:17:51.538Z,990.02
2022-11-28T02:18:51.521Z,990.06
2022-11-28T02:19:51.526Z,989.98
2022-11-28T02:20:51.655Z,989.94
2022-11-28T02:21:51.672Z,989.98
2022-11-28T02:22:51.684Z,989.94
2022-11-28T02:23:51.684Z,989.90
2022-11-28T02:24:51.682Z,989.93
2022-11-28T02:25:51.724Z,989.99
2022-11-28T02:26:51.732Z,989.91
2022-11-28T02:27:51.757Z,989.86
2022-11-28T02:28:51.775Z,989.92
2022-11-28T02:29:51.754Z,989.87
2022-11-28T02:30:51.781Z,989.87
2022-11-28T02:31:51.817Z,989.87
2022-11-28T02:32:51.808Z,989.85
2022-11-28T02:33:51.820Z,989.89
2022-11-28T02:34:52.407Z,989.87
2022-11-28T02:35:51.815Z,989.89
2022-11-28T02:36:51.869Z,989.96
2022-11-28T02:37:51.857Z,989.93
2022-11-28T02:38:51.875Z,989.87
2022-11-28T02:39:51.909Z,990.00
2022-11-28T02:40:51.894Z,989.97
2022-11-28T02:41:51.893Z,989.87
2022-11-28T02:42:51.913Z,989.83
2022-11-28T02:43:51.913Z,989.79
2022-11-28T02:44:51.962Z,989.77
2022-11-28T02:45:51.967Z,989.77
2022-11-28T02:46:52.021Z,989.75
2022-11-28T02:47:51.958Z,989.78
2022-11-28T02:48:51.985Z,989.77
2022-11-28T02:49:52.025Z,989.81
2022-11-28T02:50:52.016Z,989.74
2022-11-28T02:51:52.025Z,989.68
2022-11-28T02:52:52.050Z,989.65
2022-11-28T02:53:52.021Z,989.62
2022-11-28T02:54:52.075Z,989.56
2022-11-28T02:55:52.055Z,989.63
2022-11-28T02:56:52.089Z,989.65
2022-11-28T02:57:52.105Z,989.63
2022-11-28T02:58:52.110Z,989.69
2022-11-28T02:59:52.121Z,989.66
2022-11-28T03:00:52.253Z,989.56
2022-11-28T03:01:52.211Z,989.59
2022-11-28T03:02:52.151Z,989.47
2022-11-28T03:03:52.184Z,989.54
2022-11-28T03:04:52.181Z,989.44
2022-11-28T03:05:52.188Z,989.48
2022-11-28T03:06:52.226Z,989.46
2022-11-28T03:07:52.244Z,989.55
2022-11-28T03:08:52.200Z,989.54
2022-11-28T03:09:52.241Z,989.53
2022-11-28T03:10:52.225Z,989.52
2022-11-28T03:11:52.268Z,989.49
2022-11-28T03:12:52.246Z,989.48
2022-11-28T03:13:52.292Z,989.53
2022-11-28T03:14:52.315Z,989.43
2022-11-28T03:15:52.361Z,989.50
2022-11-28T03:16:52.313Z,989.44
2022-11-28T03:17:52.340Z,989.44
2022-11-28T03:18:52.344Z,989.50
2022-11-28T03:19:52.385Z,989.50
2022-11-28T03:20:52.380Z,989.42
2022-11-28T03:21:52.388Z,989.46
2022-11-28T03:22:52.367Z,989.39
2022-11-28T03:23:52.417Z,989.41
2022-11-28T03:24:52.441Z,989.50
2022-11-28T03:25:52.425Z,989.44
2022-11-28T03:26:52.443Z,989.43
2022-11-28T03:27:52.440Z,989.48
2022-11-28T03:28:52.459Z,989.49
2022-11-28T03:29:52.505Z,989.49
2022-11-28T03:30:52.496Z,989.48
2022-11-28T03:31:52.553Z,989.45
2022-11-28T03:32:52.517Z,989.43
2022-11-28T03:33:52.530Z,989.39
2022-11-28T03:34:52.556Z,989.34
2022-11-28T03:35:52.547Z,989.30
2022-11-28T03:36:52.564Z,989.32
2022-11-28T03:37:52.592Z,989.18
2022-11-28T03:38:52.588Z,989.14
2022-11-28T03:39:52.589Z,989.13
2022-11-28T03:40:52.611Z,989.23
2022-11-28T03:41:52.620Z,989.11
2022-11-28T03:42:52.636Z,989.20
2022-11-28T03:43:52.635Z,989.07
2022-11-28T03:44:52.656Z,989.14
2022-11-28T03:45:52.690Z,989.19
2022-11-28T03:46:52.751Z,989.09
2022-11-28T03:47:52.713Z,989.18
2022-11-28T03:48:52.704Z,989.04
2022-11-28T03:49:52.732Z,989.15
2022-11-28T03:50:52.757Z,989.11
2022-11-28T03:51:52.739Z,989.11
2022-11-28T03:52:52.773Z,988.96
2022-11-28T03:53:52.740Z,989.02
2022-11-28T03:54:52.780Z,988.94
2022-11-28T03:55:52.841Z,988.97
2022-11-28T03:56:52.800Z,988.93
2022-11-28T03:57:52.811Z,988.92
2022-11-28T03:58:52.816Z,989.03
2022-11-28T03:59:52.815Z,988.87
2022-11-28T04:00:52.942Z,988.92
2022-11-28T04:01:52.858Z,988.87
2022-11-28T04:02:52.916Z,988.88
2022-11-28T04:03:52.870Z,988.87
2022-11-28T04:04:52.896Z,988.81
2022-11-28T04:05:52.917Z,988.75
2022-11-28T04:06:52.911Z,988.79
2022-11-28T04:07:52.966Z,988.77
2022-11-28T04:08:52.930Z,988.72
2022-11-28T04:09:52.947Z,988.77
2022-11-28T04:10:52.974Z,988.68
2022-11-28T04:11:52.987Z,988.66
2022-11-28T04:12:52.981Z,988.71
2022-11-28T04:13:53.016Z,988.68
2022-11-28T04:14:53.024Z,988.60
2022-11-28T04:15:53.042Z,988.58
2022-11-28T04:16:54.049Z,988.65
2022-11-28T04:17:53.052Z,988.65
2022-11-28T04:18:53.056Z,988.76
2022-11-28T04:19:53.082Z,988.71
2022-11-28T04:20:53.086Z,988.77
2022-11-28T04:21:53.100Z,988.74
2022-11-28T04:22:53.115Z,988.75
2022-11-28T04:23:53.125Z,988.86
2022-11-28T04:24:53.136Z,988.77
2022-11-28T04:25:53.152Z,988.74
2022-11-28T04:26:53.182Z,988.88
2022-11-28T04:27:53.154Z,988.86
2022-11-28T04:28:53.195Z,988.83
2022-11-28T04:29:53.175Z,988.85
2022-11-28T04:30:53.218Z,988.81
2022-11-28T04:31:53.294Z,988.84
2022-11-28T04:32:53.223Z,988.91
2022-11-28T04:33:53.208Z,988.93
2022-11-28T04:34:53.255Z,988.97
2022-11-28T04:35:53.264Z,989.01
2022-11-28T04:36:53.298Z,989.09
2022-11-28T04:37:53.315Z,989.12
2022-11-28T04:38:53.294Z,989.14
2022-11-28T04:39:53.282Z,989.14
2022-11-28T04:40:53.333Z,989.07
2022-11-28T04:41:53.331Z,989.12
2022-11-28T04:42:53.374Z,989.12
2022-11-28T04:43:53.371Z,989.13
2022-11-28T04:44:53.392Z,989.04
2022-11-28T04:45:53.427Z,989.02
2022-11-28T04:46:53.387Z,989.05
2022-11-28T04:47:53.414Z,989.03
2022-11-28T04:48:53.433Z,989.02
2022-11-28T04:49:53.429Z,988.97
2022-11-28T04:50:53.424Z,988.93
2022-11-28T04:51:53.466Z,988.82
2022-11-28T04:52:53.482Z,988.87
2022-11-28T04:53:53.515Z,988.87
2022-11-28T04:54:53.479Z,988.86
2022-11-28T04:55:53.520Z,988.85
2022-11-28T04:56:53.535Z,988.80
2022-11-28T04:57:57.261Z,988.84
2022-11-28T04:58:53.536Z,988.85
2022-11-28T04:59:53.528Z,988.80
2022-11-28T05:00:53.539Z,988.87
2022-11-28T05:01:53.598Z,988.80
2022-11-28T05:02:53.523Z,988.86
2022-11-28T05:03:53.555Z,988.85
2022-11-28T05:04:53.530Z,988.86
2022-11-28T05:05:53.538Z,988.82
2022-11-28T05:06:53.529Z,988.80
2022-11-28T05:07:53.642Z,988.84
2022-11-28T05:08:53.557Z,988.84
2022-11-28T05:09:53.543Z,988.77
2022-11-28T05:10:53.543Z,988.78
2022-11-28T05:11:53.522Z,988.78
2022-11-28T05:12:53.550Z,988.75
2022-11-28T05:13:53.559Z,988.79
2022-11-28T05:14:53.563Z,988.83
2022-11-28T05:15:53.545Z,988.89
2022-11-28T05:16:53.635Z,988.89
2022-11-28T05:17:53.546Z,988.84
2022-11-28T05:18:53.558Z,988.99
2022-11-28T05:19:53.537Z,988.99
2022-11-28T05:20:53.548Z,988.93
2022-11-28T05:21:53.555Z,989.04
2022-11-28T05:22:53.553Z,989.02
2022-11-28T05:23:53.545Z,989.02
2022-11-28T05:24:53.546Z,989.02
2022-11-28T05:25:53.540Z,988.98
2022-11-28T05:26:53.544Z,989.05
2022-11-28T05:27:53.530Z,989.00
2022-11-28T05:28:53.575Z,989.06
2022-11-28T05:29:53.551Z,989.03
2022-11-28T05:30:53.571Z,989.02
2022-11-28T05:31:53.616Z,989.05
2022-11-28T05:32:53.571Z,989.02
2022-11-28T05:33:53.547Z,988.99
2022-11-28T05:34:53.545Z,988.98
2022-11-28T05:35:53.558Z,989.03
2022-11-28T05:36:53.573Z,989.04
2022-11-28T05:37:53.556Z,988.96
2022-11-28T05:38:53.569Z,989.08
2022-11-28T05:39:53.549Z,989.04
2022-11-28T05:40:53.540Z,989.05
2022-11-28T05:41:53.560Z,989.02
2022-11-28T05:42:53.559Z,989.02
2022-11-28T05:43:53.578Z,989.00
2022-11-28T05:44:53.566Z,989.01
2022-11-28T05:45:53.611Z,988.98
2022-11-28T05:46:53.562Z,989.04
2022-11-28T05:47:53.573Z,989.00
2022-11-28T05:48:53.590Z,988.99
2022-11-28T05:49:53.565Z,988.94
2022-11-28T05:50:53.557Z,988.87
2022-11-28T05:51:53.585Z,988.85
2022-11-28T05:52:53.588Z,988.87
2022-11-28T05:53:53.568Z,988.86
2022-11-28T05:54:53.575Z,988.81
2022-11-28T05:55:53.593Z,988.96
2022-11-28T05:56:53.579Z,988.92
2022-11-28T05:57:53.579Z,988.91
2022-11-28T05:58:53.591Z,988.94
2022-11-28T05:59:53.583Z,988.98
2022-11-28T06:00:53.578Z,988.94
2022-11-28T06:01:53.638Z,988.95
2022-11-28T06:02:58.382Z,988.90
2022-11-28T06:03:53.582Z,988.99
2022-11-28T06:04:53.618Z,988.92
2022-11-28T06:05:53.587Z,988.95
2022-11-28T06:06:53.577Z,988.88
2022-11-28T06:07:53.652Z,988.89
2022-11-28T06:08:53.605Z,988.89
2022-11-28T06:09:53.590Z,988.84
2022-11-28T06:10:53.591Z,988.87
2022-11-28T06:11:53.621Z,988.77
2022-11-28T06:12:53.601Z,988.90
2022-11-28T06:13:53.617Z,988.78
2022-11-28T06:14:53.610Z,988.81
2022-11-28T06:15:53.597Z,988.84
2022-11-28T06:16:53.649Z,988.81
2022-11-28T06:17:53.605Z,988.87
2022-11-28T06:18:53.607Z,988.76
2022-11-28T06:19:53.594Z,988.91
2022-11-28T06:20:53.592Z,988.83
2022-11-28T06:21:53.593Z,988.81
2022-11-28T06:22:53.598Z,988.84
2022-11-28T06:23:53.591Z,988.83
2022-11-28T06:24:53.592Z,988.77
2022-11-28T06:25:53.616Z,988.88
2022-11-28T06:26:53.606Z,988.86
2022-11-28T06:27:53.609Z,988.87
2022-11-28T06:28:53.628Z,988.91
2022-11-28T06:29:53.606Z,988.90
2022-11-28T06:30:53.612Z,988.92
2022-11-28T06:31:53.683Z,988.94
2022-11-28T06:32:53.583Z,988.95
2022-11-28T06:33:53.623Z,989.04
2022-11-28T06:34:53.607Z,989.00
2022-11-28T06:35:53.614Z,989.01
2022-11-28T06:36:53.643Z,989.00
2022-11-28T06:37:53.610Z,988.93
2022-11-28T06:38:53.620Z,988.87
2022-11-28T06:39:53.620Z,989.06
2022-11-28T06:40:53.589Z,989.03
2022-11-28T06:41:53.619Z,989.07
2022-11-28T06:42:53.627Z,989.11
2022-11-28T06:43:53.638Z,989.08
2022-11-28T06:44:53.638Z,989.02
2022-11-28T06:45:53.663Z,989.08
2022-11-28T06:46:53.616Z,989.14
2022-11-28T06:47:53.634Z,989.06
2022-11-28T06:48:53.644Z,989.12
2022-11-28T06:49:53.648Z,989.08
2022-11-28T06:50:53.618Z,989.03
2022-11-28T06:51:53.627Z,989.04
2022-11-28T06:52:53.630Z,989.08
2022-11-28T06:53:53.597Z,989.04
2022-11-28T06:54:53.630Z,989.06
2022-11-28T06:55:53.636Z,989.08
2022-11-28T06:56:53.638Z,989.12
2022-11-28T06:57:53.636Z,989.14
2022-11-28T06:58:53.633Z,989.18
2022-11-28T06:59:53.641Z,989.07
2022-11-28T07:00:53.664Z,989.07
2022-11-28T07:01:53.668Z,989.08
2022-11-28T07:02:53.700Z,989.11
2022-11-28T07:03:53.650Z,989.14
2022-11-28T07:04:53.638Z,989.08
2022-11-28T07:05:53.633Z,989.12
2022-11-28T07:06:53.649Z,989.17
2022-11-28T07:07:54.611Z,989.20
2022-11-28T07:08:53.667Z,989.18
2022-11-28T07:09:53.660Z,989.21
2022-11-28T07:10:53.649Z,989.23
2022-11-28T07:11:53.642Z,989.19
2022-11-28T07:12:53.642Z,989.22
2022-11-28T07:13:53.617Z,989.23
2022-11-28T07:14:53.654Z,989.22
2022-11-28T07:15:53.629Z,989.22
2022-11-28T07:16:53.713Z,989.28
2022-11-28T07:17:53.630Z,989.28
2022-11-28T07:18:53.672Z,989.23
2022-11-28T07:19:55.096Z,989.24
2022-11-28T07:20:53.647Z,989.27
2022-11-28T07:21:53.657Z,989.32
2022-11-28T07:22:53.622Z,989.19
2022-11-28T07:23:53.656Z,989.33
2022-11-28T07:24:53.648Z,989.38
2022-11-28T07:25:53.662Z,989.29
2022-11-28T07:26:53.654Z,989.30
2022-11-28T07:27:53.674Z,989.24
2022-11-28T07:28:53.654Z,989.27
2022-11-28T07:29:53.684Z,989.22
2022-11-28T07:30:53.661Z,989.20
2022-11-28T07:31:53.744Z,989.27
2022-11-28T07:32:53.669Z,989.32
2022-11-28T07:33:53.665Z,989.27
2022-11-28T07:34:53.667Z,989.20
2022-11-28T07:35:53.666Z,989.23
2022-11-28T07:36:53.655Z,989.30
2022-11-28T07:37:53.681Z,989.24
2022-11-28T07:38:53.662Z,989.27
2022-11-28T07:39:53.646Z,989.25
2022-11-28T07:40:53.693Z,989.26
2022-11-28T07:41:53.661Z,989.16
2022-11-28T07:42:53.665Z,989.17
2022-11-28T07:43:53.696Z,989.16
2022-11-28T07:44:53.679Z,989.10
2022-11-28T07:46:00.983Z,989.16
2022-11-28T07:46:53.738Z,989.23
2022-11-28T07:47:53.665Z,989.21
2022-11-28T07:48:53.668Z,989.23
2022-11-28T07:49:53.677Z,989.23
2022-11-28T07:50:53.699Z,989.25
2022-11-28T07:51:53.671Z,989.12
2022-11-28T07:52:53.667Z,989.17
2022-11-28T07:53:53.676Z,989.20
2022-11-28T07:54:53.671Z,989.22
2022-11-28T07:55:53.701Z,989.25
2022-11-28T07:57:12.340Z,989.27
2022-11-28T07:57:53.678Z,989.20
2022-11-28T07:58:53.677Z,989.20
2022-11-28T07:59:53.677Z,989.19
2022-11-28T08:00:53.674Z,989.17
2022-11-28T08:01:53.882Z,989.19
2022-11-28T08:02:53.699Z,989.17
2022-11-28T08:03:53.712Z,989.19
2022-11-28T08:04:55.412Z,989.20
2022-11-28T08:05:53.682Z,989.19
2022-11-28T08:06:53.706Z,989.17
2022-11-28T08:07:53.772Z,989.15
2022-11-28T08:08:53.683Z,989.19
2022-11-28T08:09:53.682Z,989.21
2022-11-28T08:10:53.703Z,989.08
2022-11-28T08:11:53.715Z,989.03
2022-11-28T08:12:53.682Z,989.04
2022-11-28T08:13:56.470Z,989.14
2022-11-28T08:14:53.688Z,989.08
2022-11-28T08:15:53.728Z,989.12
2022-11-28T08:16:53.787Z,989.03
2022-11-28T08:17:53.702Z,989.11
2022-11-28T08:18:53.725Z,989.04
2022-11-28T08:19:53.699Z,989.12
2022-11-28T08:20:53.707Z,988.99
2022-11-28T08:21:53.725Z,989.10
2022-11-28T08:22:53.709Z,989.15
2022-11-28T08:23:53.715Z,989.12
2022-11-28T08:24:53.685Z,989.03
2022-11-28T08:25:53.718Z,989.02
2022-11-28T08:26:53.689Z,989.00
2022-11-28T08:27:53.685Z,988.97
2022-11-28T08:28:53.781Z,988.99
2022-11-28T08:29:54.262Z,988.95
2022-11-28T08:30:53.745Z,988.88
2022-11-28T08:31:53.716Z,988.92
2022-11-28T08:32:53.708Z,988.93
2022-11-28T08:33:53.723Z,988.85
2022-11-28T08:34:53.715Z,988.88
2022-11-28T08:35:53.723Z,988.97
2022-11-28T08:36:53.721Z,988.82
2022-11-28T08:37:57.576Z,988.90
2022-11-28T08:39:03.908Z,988.91
2022-11-28T08:39:54.026Z,988.86
2022-11-28T08:40:53.717Z,988.89
2022-11-28T08:41:53.727Z,988.78
2022-11-28T08:42:53.722Z,988.82
2022-11-28T08:43:53.741Z,988.69
2022-11-28T08:44:53.738Z,988.77
2022-11-28T08:45:53.751Z,988.73
2022-11-28T08:46:53.725Z,988.81
2022-11-28T08:47:53.722Z,988.83
2022-11-28T08:48:53.749Z,988.78
2022-11-28T08:49:53.729Z,988.71
2022-11-28T08:50:53.755Z,988.75
2022-11-28T08:51:53.727Z,988.83
2022-11-28T08:52:53.746Z,988.81
2022-11-28T08:53:59.026Z,988.79
2022-11-28T08:54:53.761Z,988.74
2022-11-28T08:55:53.735Z,988.72
2022-11-28T08:56:53.725Z,988.75
2022-11-28T08:57:53.752Z,988.80
2022-11-28T08:58:53.733Z,988.72
2022-11-28T08:59:53.775Z,988.75
2022-11-28T09:00:53.809Z,988.76
2022-11-28T09:01:53.805Z,988.66
2022-11-28T09:02:53.723Z,988.60
2022-11-28T09:03:53.801Z,988.69
2022-11-28T09:04:53.792Z,988.71
2022-11-28T09:05:53.736Z,988.71
2022-11-28T09:06:53.737Z,988.70
2022-11-28T09:07:53.796Z,988.71
2022-11-28T09:08:53.750Z,988.80
2022-11-28T09:09:53.758Z,988.81
2022-11-28T09:10:53.743Z,988.76
2022-11-28T09:11:53.763Z,988.75
2022-11-28T09:12:53.737Z,988.80
2022-11-28T09:13:53.743Z,988.76
2022-11-28T09:14:53.744Z,988.83
2022-11-28T09:15:53.894Z,988.74
2022-11-28T09:16:53.840Z,988.75
2022-11-28T09:17:53.745Z,988.81
2022-11-28T09:18:53.726Z,988.81
2022-11-28T09:19:53.740Z,988.78
2022-11-28T09:20:53.765Z,988.78
2022-11-28T09:21:57.673Z,988.78
2022-11-28T09:22:53.782Z,988.79
2022-11-28T09:23:53.760Z,988.78
2022-11-28T09:24:53.783Z,988.80
2022-11-28T09:25:53.764Z,988.84
2022-11-28T09:26:53.759Z,988.83
2022-11-28T09:27:53.757Z,988.76
2022-11-28T09:28:53.739Z,988.82
2022-11-28T09:29:53.740Z,988.77
2022-11-28T09:30:53.802Z,988.84
2022-11-28T09:31:53.747Z,988.78
2022-11-28T09:32:53.750Z,988.84
2022-11-28T09:33:53.747Z,988.93
2022-11-28T09:34:53.762Z,988.90
2022-11-28T09:35:53.768Z,988.92
2022-11-28T09:36:53.805Z,988.87
2022-11-28T09:37:53.768Z,988.96
2022-11-28T09:38:53.748Z,988.92
2022-11-28T09:40:12.211Z,988.85
2022-11-28T09:40:53.776Z,988.87
2022-11-28T09:41:53.771Z,988.94
2022-11-28T09:42:53.781Z,988.89
2022-11-28T09:43:55.213Z,988.92
2022-11-28T09:44:53.765Z,988.97
2022-11-28T09:45:53.819Z,988.92
2022-11-28T09:46:53.764Z,988.97
2022-11-28T09:47:53.769Z,988.92
2022-11-28T09:48:53.762Z,988.91
2022-11-28T09:49:53.776Z,988.96
2022-11-28T09:50:53.776Z,988.94
2022-11-28T09:51:53.756Z,988.94
2022-11-28T09:52:53.841Z,988.91
2022-11-28T09:53:53.762Z,988.92
2022-11-28T09:54:53.763Z,988.90
2022-11-28T09:55:53.780Z,988.88
2022-11-28T09:56:53.776Z,988.93
2022-11-28T09:57:53.793Z,988.87
2022-11-28T09:58:53.791Z,988.87
2022-11-28T09:59:53.784Z,988.88
2022-11-28T10:00:55.547Z,988.86
2022-11-28T10:01:53.777Z,988.90
2022-11-28T10:02:53.795Z,988.94
2022-11-28T10:03:53.909Z,988.92
2022-11-28T10:04:53.815Z,988.94
2022-11-28T10:05:53.778Z,988.88
2022-11-28T10:06:53.790Z,988.86
2022-11-28T10:07:55.360Z,988.89
2022-11-28T10:08:53.798Z,988.91
2022-11-28T10:09:53.783Z,988.91
2022-11-28T10:10:53.796Z,988.97
2022-11-28T10:11:53.805Z,988.92
2022-11-28T10:12:53.790Z,988.99
2022-11-28T10:14:07.911Z,988.91
2022-11-28T10:14:53.795Z,988.95
2022-11-28T10:15:53.783Z,988.95
2022-11-28T10:16:53.887Z,988.98
2022-11-28T10:17:53.799Z,988.87
2022-11-28T10:18:53.801Z,989.03
2022-11-28T10:19:54.899Z,988.95
2022-11-28T10:20:53.802Z,988.98
2022-11-28T10:21:59.008Z,988.94
2022-11-28T10:22:53.795Z,989.01
2022-11-28T10:23:53.811Z,988.96
2022-11-28T10:24:53.816Z,989.00
2022-11-28T10:25:53.810Z,988.93
2022-11-28T10:26:53.802Z,989.02
2022-11-28T10:27:53.826Z,989.01
2022-11-28T10:28:53.807Z,988.96
2022-11-28T10:29:53.842Z,988.94
2022-11-28T10:30:53.844Z,989.00
2022-11-28T10:31:53.803Z,988.93
2022-11-28T10:32:53.827Z,988.95
2022-11-28T10:33:53.806Z,988.87
2022-11-28T10:34:53.848Z,988.88
2022-11-28T10:35:53.804Z,988.87
2022-11-28T10:36:53.856Z,988.83
2022-11-28T10:37:53.815Z,988.90
2022-11-28T10:38:53.831Z,988.86
2022-11-28T10:39:53.866Z,988.87
2022-11-28T10:40:53.813Z,988.96
2022-11-28T10:41:53.814Z,988.88
2022-11-28T10:42:53.816Z,988.92
2022-11-28T10:43:53.842Z,988.81
2022-11-28T10:44:53.827Z,988.87
2022-11-28T10:45:53.875Z,988.95
2022-11-28T10:46:53.813Z,988.82
2022-11-28T10:47:53.865Z,988.81
2022-11-28T10:48:53.824Z,988.82
2022-11-28T10:49:53.818Z,988.79
2022-11-28T10:50:53.852Z,988.81
2022-11-28T10:51:53.833Z,988.81
2022-11-28T10:52:53.873Z,988.81
2022-11-28T10:53:53.822Z,988.88
2022-11-28T10:54:53.833Z,988.78
2022-11-28T10:55:53.847Z,988.75
2022-11-28T10:56:53.848Z,988.87
2022-11-28T10:57:53.837Z,988.79
2022-11-28T10:58:53.838Z,988.78
2022-11-28T10:59:53.840Z,988.74
2022-11-28T11:00:53.835Z,988.78
2022-11-28T11:01:53.954Z,988.77
2022-11-28T11:02:53.849Z,988.77
2022-11-28T11:03:53.883Z,988.81
2022-11-28T11:04:53.869Z,988.75
2022-11-28T11:05:53.840Z,988.88
2022-11-28T11:07:07.181Z,988.82
2022-11-28T11:07:53.873Z,988.82
2022-11-28T11:08:53.838Z,988.77
2022-11-28T11:09:53.857Z,988.77
2022-11-28T11:10:53.845Z,988.78
2022-11-28T11:11:53.895Z,988.77
2022-11-28T11:12:53.866Z,988.81
2022-11-28T11:13:53.909Z,988.76
2022-11-28T11:14:53.836Z,988.79
2022-11-28T11:15:53.866Z,988.83
2022-11-28T11:16:53.858Z,988.81
2022-11-28T11:17:53.852Z,988.76
2022-11-28T11:18:53.854Z,988.80
2022-11-28T11:19:56.285Z,988.80
2022-11-28T11:20:53.862Z,988.76
2022-11-28T11:21:53.888Z,988.76
2022-11-28T11:22:53.848Z,988.82
2022-11-28T11:23:53.892Z,988.75
2022-11-28T11:24:53.862Z,988.75
2022-11-28T11:25:53.841Z,988.75
2022-11-28T11:26:53.862Z,988.74
2022-11-28T11:27:53.863Z,988.75
2022-11-28T11:28:53.865Z,988.78
2022-11-28T11:29:54.284Z,988.81
2022-11-28T11:30:53.927Z,988.72
2022-11-28T11:31:53.857Z,988.76
2022-11-28T11:32:53.865Z,988.75
2022-11-28T11:33:53.903Z,988.71
2022-11-28T11:34:53.899Z,988.66
2022-11-28T11:35:53.890Z,988.65
2022-11-28T11:36:53.870Z,988.65
2022-11-28T11:37:53.883Z,988.62
2022-11-28T11:38:53.872Z,988.56
2022-11-28T11:39:53.877Z,988.60
2022-11-28T11:40:53.864Z,988.60
2022-11-28T11:41:53.874Z,988.58
2022-11-28T11:42:53.887Z,988.50
2022-11-28T11:43:53.881Z,988.51
2022-11-28T11:44:53.880Z,988.58
2022-11-28T11:45:53.899Z,988.61
2022-11-28T11:46:53.896Z,988.60
2022-11-28T11:47:53.904Z,988.60
2022-11-28T11:48:53.893Z,988.58
2022-11-28T11:49:53.906Z,988.68
2022-11-28T11:50:53.921Z,988.59
2022-11-28T11:51:53.928Z,988.58
2022-11-28T11:52:53.944Z,988.69
2022-11-28T11:53:53.958Z,988.58
2022-11-28T11:54:53.948Z,988.62
2022-11-28T11:55:53.980Z,988.61
2022-11-28T11:57:11.248Z,988.64
2022-11-28T11:57:53.985Z,988.66
2022-11-28T11:58:53.992Z,988.58
2022-11-28T11:59:54.042Z,988.59
2022-11-28T12:00:53.986Z,988.61
2022-11-28T12:01:54.002Z,988.68
2022-11-28T12:02:54.224Z,988.69
2022-11-28T12:03:54.099Z,988.60
2022-11-28T12:04:55.351Z,988.67
2022-11-28T12:06:13.844Z,988.57
2022-11-28T12:06:54.000Z,988.62
2022-11-28T12:07:54.045Z,988.60
2022-11-28T12:08:54.015Z,988.67
2022-11-28T12:09:54.793Z,988.65
2022-11-28T12:10:54.029Z,988.65
2022-11-28T12:11:54.000Z,988.65
2022-11-28T12:12:54.006Z,988.64
2022-11-28T12:13:54.030Z,988.67
2022-11-28T12:14:54.031Z,988.62
2022-11-28T12:15:54.091Z,988.62
2022-11-28T12:16:54.004Z,988.62
2022-11-28T12:17:58.558Z,988.59
2022-11-28T12:18:54.036Z,988.54
2022-11-28T12:19:54.009Z,988.57
2022-11-28T12:20:54.016Z,988.58
2022-11-28T12:21:54.008Z,988.56
2022-11-28T12:22:54.005Z,988.59
2022-11-28T12:23:54.034Z,988.55
2022-11-28T12:24:54.031Z,988.54
2022-11-28T12:25:54.018Z,988.57
2022-11-28T12:26:54.029Z,988.52
2022-11-28T12:27:54.043Z,988.49
2022-11-28T12:28:54.038Z,988.51